MST,Max TemperatureF,Mean TemperatureF,Min TemperatureF,Max Dew PointF,MeanDew PointF,Min DewpointF,Max Humidity, Mean Humidity, Min Humidity, Max Sea Level PressureIn, Mean Sea Level PressureIn, Min Sea Level PressureIn, Max VisibilityMiles, Mean VisibilityMiles, Min VisibilityMiles, Max Wind SpeedMPH, Mean Wind SpeedMPH, Max Gust SpeedMPH,PrecipitationIn, CloudCover, Events, WindDirDegrees
2013-6-1,95,82,69,36,28,18,29,16,6,29.84,29.79,29.72,10,10,10,13,8,21,0.00,0,,273
2013-6-2,99,86,72,36,30,21,26,14,7,29.93,29.76,29.70,10,10,10,22,11,29,0.00,0,,247
2013-6-3,93,80,66,36,24,7,26,14,4,29.86,29.81,29.76,10,10,10,18,9,29,0.00,0,,242
2013-6-4,93,80,66,39,31,19,32,18,7,29.89,29.84,29.80,10,10,10,21,10,30,0.00,1,,230
2013-6-5,93,80,66,37,20,0,35,14,4,30.09,29.85,29.77,10,10,10,23,10,29,0.00,1,,258
2013-6-6,95,82,69,23,16,3,15,9,4,29.85,29.79,29.72,10,10,10,14,9,21,0.00,0,,277
2013-6-7,98,84,71,27,21,16,17,10,5,30.02,29.76,29.66,10,10,10,14,8,24,0.00,1,,262
2013-6-8,97,82,68,29,21,15,19,10,5,29.83,29.78,29.73,10,10,10,23,13,33,0.00,0,,283
2013-6-9,96,82,68,36,24,15,31,13,5,30.08,29.86,29.81,10,10,10,20,12,28,0.00,0,,291
2013-6-10,98,86,73,27,23,16,17,11,6,30.11,29.88,29.79,10,10,10,16,10,23,0.00,1,,280
2013-6-11,100,88,75,28,21,16,16,9,5,29.91,29.85,29.80,10,10,10,21,11,28,0.00,1,,289
2013-6-12,100,86,71,28,25,21,18,11,6,29.96,29.87,29.81,10,10,10,20,10,23,0.00,3,,280
2013-6-13,96,82,69,48,38,32,41,21,10,29.93,29.87,29.80,10,10,10,20,10,30,0.00,1,,296
2013-6-14,93,81,69,54,48,43,49,31,17,30.06,29.89,29.80,10,10,10,26,9,32,0.00,4,Rain-Thunderstorm,263
2013-6-15,93,81,69,57,50,46,53,38,20,30.05,29.90,29.83,10,10,10,21,6,25,0.00,1,Rain-Thunderstorm,281
2013-6-16,96,83,70,50,41,27,46,26,10,29.97,29.90,29.83,10,10,10,17,7,24,0.00,1,,245
2013-6-17,95,84,73,27,22,14,18,11,5,29.94,29.88,29.83,10,10,10,21,12,29,0.00,0,,256
2013-6-18,96,81,66,21,11,-13,17,8,4,29.88,29.82,29.59,10,10,10,16,8,25,0.00,0,,229
2013-6-19,96,82,69,28,19,9,16,10,4,29.82,29.75,29.43,10,10,10,28,11,37,0.00,1,,230
2013-6-20,96,80,64,36,17,-18,21,11,4,29.85,29.81,29.76,10,10,10,21,8,32,0.00,0,,228
2013-6-21,96,82,68,37,28,7,31,16,4,29.89,29.84,29.81,10,10,10,23,7,33,0.00,3,,219
2013-6-22,96,81,66,35,23,7,28,14,4,30.07,29.85,29.77,10,10,10,21,8,69,0.00,0,,241
2013-6-23,93,80,68,36,28,21,23,15,8,29.84,29.79,29.74,10,10,10,29,9,41,0.00,0,,215
2013-6-24,93,81,69,36,31,27,27,17,11,29.88,29.83,29.76,10,10,10,24,10,33,0.00,2,,223
2013-6-25,95,80,66,39,26,18,35,16,6,29.95,29.91,29.86,10,10,10,23,9,31,0.00,0,,262
2013-6-26,95,82,69,34,24,18,21,12,8,30.02,29.97,29.93,10,10,10,14,10,22,0.00,0,,291
2013-6-27,98,84,69,39,29,18,31,14,8,30.27,30.10,29.94,10,10,10,18,12,24,0.00,5,,289
2013-6-28,100,89,78,30,27,25,16,11,7,29.97,29.91,29.84,10,10,10,22,11,29,0.00,5,,207
2013-6-29,99,88,77,39,32,26,20,14,8,29.93,29.85,29.77,10,10,9,17,5,23,0.00,0,,46
2013-6-30,99,84,69,63,45,34,81,32,11,30.11,29.89,29.73,10,9,3,31,10,39,0.18,2,Rain-Thunderstorm,230